Time;durP1;ratioP1;P1;durP2;ratioP2;P2;SDS_P1;SDS_P2;PMS_P1;PMS_P2;Temp;Humidity;BMP_temperature;BMP_pressure;BME280_temperature;BME280_humidity;BME280_pressure;Samples;Min_cycle;Max_cycle;Signal;HPM_P1;HPM_P2
2022/04/05 00:05:39;;;;;;;7.55;2.80;;;10.00;99.90;;;;;;20774967;28;20044;-45
2022/04/05 00:15:42;;;;;;;7.38;2.00;;;9.90;99.90;;;;;;20772214;28;20053;-45
2022/04/05 00:25:43;;;;;;;5.25;1.50;;;9.80;99.90;;;;;;20770900;28;20038;-46
2022/04/05 00:35:44;;;;;;;3.10;0.90;;;9.50;99.90;;;;;;20772403;28;20050;-46
2022/04/05 00:45:45;;;;;;;3.95;0.75;;;9.20;99.90;;;;;;20762515;28;20512;-45
2022/04/05 00:55:47;;;;;;;3.00;0.65;;;8.90;99.90;;;;;;20779058;28;22229;-45
2022/04/05 01:05:51;;;;;;;3.28;1.17;;;8.80;99.90;;;;;;20771514;28;20037;-45
2022/04/05 01:15:52;;;;;;;2.28;1.10;;;8.80;99.90;;;;;;20773083;28;20843;-45
2022/04/05 01:25:55;;;;;;;2.67;1.42;;;8.70;99.90;;;;;;20778875;28;20037;-45
2022/04/05 01:35:56;;;;;;;2.60;0.70;;;8.60;99.90;;;;;;20776638;28;20041;-46
2022/04/05 01:45:57;;;;;;;1.42;0.65;;;8.60;99.90;;;;;;20790254;28;20029;-45
2022/04/05 01:55:58;;;;;;;2.47;0.98;;;8.60;99.90;;;;;;20789386;28;20049;-45
2022/04/05 02:05:59;;;;;;;4.07;1.17;;;8.60;99.90;;;;;;20787090;28;20030;-45
2022/04/05 02:16:04;;;;;;;3.50;1.30;;;8.50;99.90;;;;;;20786520;28;20037;-45
2022/04/05 02:26:05;;;;;;;4.75;1.80;;;8.40;99.90;;;;;;20783758;28;20042;-45
2022/04/05 02:36:07;;;;;;;2.72;1.17;;;8.50;99.90;;;;;;20784108;28;20083;-45
2022/04/05 02:46:11;;;;;;;5.13;1.63;;;8.40;99.90;;;;;;20784789;28;20037;-45
2022/04/05 02:56:13;;;;;;;6.15;1.90;;;8.40;99.90;;;;;;20783147;28;20044;-45
2022/04/05 03:06:14;;;;;;;7.85;2.03;;;8.30;99.90;;;;;;20781278;28;20052;-45
2022/04/05 03:16:15;;;;;;;5.18;1.60;;;8.40;99.90;;;;;;20784349;28;20396;-45
2022/04/05 03:26:16;;;;;;;3.53;1.45;;;8.30;99.90;;;;;;20793927;28;20396;-45
2022/04/05 03:36:17;;;;;;;5.53;1.63;;;8.30;99.90;;;;;;20798910;28;20365;-45
2022/04/05 03:46:18;;;;;;;5.13;1.52;;;8.40;99.90;;;;;;20795611;28;20607;-45
2022/04/05 03:56:20;;;;;;;3.65;1.48;;;8.40;99.90;;;;;;20792586;28;20397;-45
2022/04/05 04:06:21;;;;;;;2.63;0.85;;;8.40;99.90;;;;;;20789481;28;20053;-45
2022/04/05 04:16:23;;;;;;;3.47;1.15;;;8.50;99.90;;;;;;20791846;28;20041;-45
2022/04/05 04:26:24;;;;;;;3.45;1.30;;;8.50;99.90;;;;;;20790274;28;20049;-45
2022/04/05 04:36:26;;;;;;;7.70;2.00;;;8.70;99.90;;;;;;20787902;28;20183;-45
2022/04/05 04:46:27;;;;;;;8.13;2.80;;;8.70;99.90;;;;;;20786882;28;20033;-45
2022/04/05 04:56:28;;;;;;;7.80;2.80;;;8.90;99.90;;;;;;20785965;28;20042;-45
2022/04/05 05:06:31;;;;;;;6.20;2.38;;;9.20;99.90;;;;;;20788836;28;20148;-45
2022/04/05 05:16:33;;;;;;;7.78;2.80;;;9.40;99.90;;;;;;20787188;28;20041;-45
2022/04/05 05:26:34;;;;;;;8.48;2.63;;;9.40;99.90;;;;;;20787049;28;20060;-45
2022/04/05 05:36:35;;;;;;;6.63;2.53;;;9.70;99.90;;;;;;20782562;28;20060;-45
2022/04/05 05:46:36;;;;;;;6.07;1.80;;;9.80;99.90;;;;;;20787375;28;20038;-45
2022/04/05 05:56:37;;;;;;;7.50;2.63;;;9.90;99.90;;;;;;20781562;28;20465;-45
2022/04/05 06:06:38;;;;;;;5.28;1.95;;;9.90;99.90;;;;;;20765191;28;20135;-45
2022/04/05 06:16:39;;;;;;;4.72;1.83;;;10.00;99.90;;;;;;20788277;28;20460;-45
2022/04/05 06:26:40;;;;;;;4.35;1.40;;;10.00;99.90;;;;;;20772244;28;20501;-46
2022/04/05 06:36:42;;;;;;;5.32;1.52;;;10.00;99.90;;;;;;20782092;28;20045;-45
2022/04/05 06:46:43;;;;;;;4.05;1.42;;;10.10;99.90;;;;;;20784585;28;20037;-45
2022/04/05 06:56:44;;;;;;;8.60;2.55;;;10.30;99.90;;;;;;20798971;28;20050;-45
2022/04/05 07:06:45;;;;;;;4.70;1.98;;;10.40;99.90;;;;;;20794953;28;20879;-45
2022/04/05 07:16:46;;;;;;;7.50;1.38;;;10.30;99.90;;;;;;20794307;28;20038;-45
2022/04/05 07:26:47;;;;;;;5.13;1.80;;;10.30;99.90;;;;;;20796461;28;20030;-45
2022/04/05 07:36:48;;;;;;;5.70;2.10;;;10.40;99.90;;;;;;20791862;28;20045;-45
2022/04/05 07:46:49;;;;;;;16.50;1.60;;;10.50;99.90;;;;;;20795631;28;20045;-45
2022/04/05 07:56:50;;;;;;;11.70;1.30;;;10.50;99.90;;;;;;20795298;28;20546;-45
2022/04/05 08:06:51;;;;;;;3.22;1.20;;;10.70;99.90;;;;;;20801470;28;20413;-45
2022/04/05 08:16:52;;;;;;;3.22;0.90;;;11.00;99.90;;;;;;20816393;28;20200;-45
2022/04/05 08:26:53;;;;;;;3.38;1.25;;;11.30;99.90;;;;;;20820721;28;20479;-45
2022/04/05 08:36:55;;;;;;;3.97;1.45;;;11.30;99.90;;;;;;20819623;28;20050;-45
2022/04/05 08:47:00;;;;;;;3.80;1.65;;;11.40;99.90;;;;;;20826128;28;20045;-45
2022/04/05 08:57:02;;;;;;;9.02;1.80;;;11.30;99.90;;;;;;20818787;28;20047;-45
2022/04/05 09:07:23;;;;;;;3.58;1.77;;;11.20;99.90;;;;;;20826923;28;20109;-45
2022/04/05 09:17:24;;;;;;;3.08;1.10;;;11.20;99.90;;;;;;20824863;28;20486;-45
2022/04/05 09:27:47;;;;;;;3.47;1.27;;;11.20;99.90;;;;;;20814001;28;20040;-45
2022/04/05 09:37:48;;;;;;;3.33;1.23;;;11.40;99.90;;;;;;20816491;28;20056;-46
2022/04/05 09:48:03;;;;;;;3.00;0.90;;;11.40;99.90;;;;;;20822554;28;20477;-45
2022/04/05 09:58:11;;;;;;;2.58;0.98;;;11.70;99.90;;;;;;20818686;28;20290;-45
2022/04/05 10:08:12;;;;;;;2.25;0.95;;;11.80;99.90;;;;;;20819988;28;20391;-45
2022/04/05 10:18:16;;;;;;;5.55;1.30;;;11.80;99.90;;;;;;20827798;28;20109;-45
2022/04/05 10:28:24;;;;;;;2.53;0.90;;;11.80;99.90;;;;;;20827002;28;20113;-45
2022/04/05 10:38:27;;;;;;;3.50;1.85;;;11.70;99.90;;;;;;20823743;28;20460;-45
2022/04/05 10:48:31;;;;;;;3.92;1.25;;;11.80;99.90;;;;;;20823426;28;20101;-45
2022/04/05 10:59:14;;;;;;;3.22;1.60;;;12.20;99.90;;;;;;20817137;28;20400;-45
2022/04/05 11:09:25;;;;;;;4.43;1.20;;;12.30;99.90;;;;;;20821508;28;20471;-45
2022/04/05 11:19:27;;;;;;;3.13;0.93;;;12.40;99.90;;;;;;20828898;28;20061;-45
2022/04/05 11:29:28;;;;;;;6.35;1.50;;;12.50;99.90;;;;;;20843610;28;20063;-46
2022/04/05 11:39:34;;;;;;;3.33;0.95;;;12.50;99.90;;;;;;20854587;28;20049;-46
2022/04/05 11:49:42;;;;;;;2.42;0.90;;;12.40;99.90;;;;;;20868590;28;20045;-46
2022/04/05 11:59:43;;;;;;;2.42;1.10;;;12.40;99.90;;;;;;20843692;28;20164;-46
2022/04/05 12:09:44;;;;;;;4.30;2.10;;;12.50;99.90;;;;;;20837728;28;20138;-46
2022/04/05 12:19:46;;;;;;;5.05;1.55;;;12.60;99.90;;;;;;20834674;28;20048;-46
2022/04/05 12:29:47;;;;;;;4.18;1.30;;;12.70;99.90;;;;;;20835879;28;20106;-45
2022/04/05 12:39:54;;;;;;;3.10;1.20;;;12.60;99.90;;;;;;20831783;28;20144;-46
2022/04/05 12:50:01;;;;;;;4.35;1.70;;;12.70;99.90;;;;;;20828239;28;20447;-45
2022/04/05 13:00:09;;;;;;;3.15;1.25;;;12.60;99.90;;;;;;20826398;28;20064;-46
2022/04/05 13:10:12;;;;;;;4.90;1.23;;;12.30;99.90;;;;;;20826320;28;20049;-45
2022/04/05 13:20:13;;;;;;;7.05;1.90;;;12.20;99.90;;;;;;20825221;28;20053;-45
2022/04/05 13:30:16;;;;;;;4.50;1.25;;;12.40;99.90;;;;;;20826143;28;20041;-45
2022/04/05 13:40:17;;;;;;;2.75;1.02;;;12.40;99.90;;;;;;20814730;28;20041;-45
2022/04/05 13:50:20;;;;;;;3.65;1.33;;;12.30;99.90;;;;;;20815086;28;20052;-45
2022/04/05 14:00:21;;;;;;;3.75;1.38;;;12.40;99.90;;;;;;20812478;28;20472;-45
2022/04/05 14:10:22;;;;;;;3.67;1.25;;;12.40;99.90;;;;;;20806139;28;20049;-45
2022/04/05 14:20:23;;;;;;;6.35;1.38;;;12.30;99.90;;;;;;20811731;28;20456;-45
2022/04/05 14:30:24;;;;;;;4.00;1.65;;;12.10;99.90;;;;;;20806574;28;20037;-48
2022/04/05 14:40:25;;;;;;;3.65;1.73;;;11.90;99.90;;;;;;20777470;28;20071;-45
2022/04/05 14:50:28;;;;;;;4.22;1.13;;;11.80;99.90;;;;;;20807474;28;20050;-45
2022/04/05 15:00:29;;;;;;;5.22;1.85;;;11.60;99.90;;;;;;20809219;28;20068;-45
2022/04/05 15:10:31;;;;;;;6.72;1.98;;;11.50;99.90;;;;;;20807505;28;20045;-45
2022/04/05 15:20:32;;;;;;;5.45;2.38;;;11.50;99.90;;;;;;20815256;28;20099;-45
2022/04/05 15:30:35;;;;;;;8.07;2.58;;;11.40;99.90;;;;;;20822207;28;20378;-45
2022/04/05 15:40:36;;;;;;;5.45;2.40;;;11.30;99.90;;;;;;20835733;28;20128;-46
2022/04/05 15:50:37;;;;;;;4.25;1.60;;;11.30;99.90;;;;;;20833103;28;20584;-45
2022/04/05 16:00:38;;;;;;;4.90;1.77;;;11.60;99.90;;;;;;20831404;28;20065;-45
2022/04/05 16:10:41;;;;;;;3.35;1.48;;;11.60;99.90;;;;;;20827700;28;20045;-45
2022/04/05 16:20:44;;;;;;;3.63;1.70;;;11.80;99.90;;;;;;20807512;28;20041;-45
2022/04/05 16:30:45;;;;;;;6.15;2.25;;;11.80;99.90;;;;;;20826699;28;20034;-45
2022/04/05 16:40:47;;;;;;;7.68;3.70;;;11.70;99.90;;;;;;20826200;28;20056;-45
2022/04/05 16:50:48;;;;;;;6.70;1.73;;;11.50;99.90;;;;;;20821938;28;20052;-49
2022/04/05 17:00:49;;;;;;;7.65;1.95;;;11.40;99.90;;;;;;20813877;28;20055;-45
2022/04/05 17:10:50;;;;;;;4.80;1.90;;;11.40;99.90;;;;;;20819577;28;20413;-45
2022/04/05 17:20:51;;;;;;;6.20;1.33;;;11.40;99.90;;;;;;20802248;28;20033;-45
2022/04/05 17:30:53;;;;;;;5.97;2.80;;;11.30;99.90;;;;;;20819544;28;20041;-45
2022/04/05 17:40:54;;;;;;;7.32;1.60;;;11.20;99.90;;;;;;20815564;28;20049;-45
2022/04/05 17:50:55;;;;;;;2.80;1.00;;;11.20;99.90;;;;;;20818270;28;20281;-45
2022/04/05 18:00:56;;;;;;;4.45;1.85;;;11.30;99.90;;;;;;20812622;28;20127;-45
2022/04/05 18:10:58;;;;;;;3.80;1.77;;;11.20;99.90;;;;;;20817340;28;20056;-45
2022/04/05 18:21:00;;;;;;;5.63;1.30;;;11.20;99.90;;;;;;20796328;28;20045;-45
2022/04/05 18:31:02;;;;;;;4.82;1.23;;;11.30;99.90;;;;;;20807427;28;20041;-46
2022/04/05 18:41:04;;;;;;;5.72;1.63;;;11.20;99.90;;;;;;20807502;28;20048;-45
2022/04/05 18:51:06;;;;;;;2.97;1.15;;;11.10;99.90;;;;;;20802936;28;20048;-45
2022/04/05 19:01:08;;;;;;;7.90;2.60;;;11.20;99.90;;;;;;20800398;28;20083;-45
2022/04/05 19:11:10;;;;;;;2.53;1.25;;;11.10;99.90;;;;;;20801396;28;20047;-45
2022/04/05 19:21:13;;;;;;;9.02;2.05;;;11.00;99.90;;;;;;20802151;28;20041;-45
2022/04/05 19:31:15;;;;;;;4.32;1.60;;;11.10;99.90;;;;;;20791451;28;20041;-45
2022/04/05 19:41:17;;;;;;;11.23;1.50;;;11.00;99.90;;;;;;20801789;28;20061;-45
2022/04/05 19:51:18;;;;;;;6.82;1.77;;;10.80;99.90;;;;;;20782443;28;20746;-45
2022/04/05 20:01:20;;;;;;;5.93;2.05;;;10.80;99.90;;;;;;20784399;28;20501;-45
2022/04/05 20:11:21;;;;;;;7.32;1.80;;;10.70;99.90;;;;;;20790369;28;20056;-44
2022/04/05 20:21:22;;;;;;;3.38;1.55;;;10.80;99.90;;;;;;20792161;28;20068;-45
2022/04/05 20:31:23;;;;;;;6.03;2.10;;;10.60;99.90;;;;;;20784942;28;20148;-45
2022/04/05 20:41:24;;;;;;;14.60;3.13;;;10.50;99.90;;;;;;20786827;28;20060;-45
2022/04/05 20:51:26;;;;;;;7.18;2.40;;;10.60;99.90;;;;;;20789183;28;20052;-45
2022/04/05 21:01:27;;;;;;;5.45;2.40;;;10.40;99.90;;;;;;20785978;28;20678;-45
2022/04/05 21:11:31;;;;;;;8.98;2.60;;;10.50;99.90;;;;;;20789345;28;20041;-45
2022/04/05 21:21:32;;;;;;;10.18;4.15;;;10.50;99.90;;;;;;20796998;28;20081;-45
2022/04/05 21:31:33;;;;;;;7.93;3.00;;;10.40;99.90;;;;;;20789993;28;20053;-45
2022/04/05 21:41:35;;;;;;;7.88;2.67;;;10.40;99.90;;;;;;20798047;28;20041;-45
2022/04/05 21:51:36;;;;;;;14.82;3.00;;;10.20;99.90;;;;;;20797326;28;20661;-45
2022/04/05 22:01:38;;;;;;;5.72;2.55;;;10.20;99.90;;;;;;20790187;28;20068;-45
2022/04/05 22:11:39;;;;;;;8.35;2.13;;;10.20;99.90;;;;;;20785976;28;20038;-45
2022/04/05 22:21:40;;;;;;;10.52;2.10;;;10.10;99.90;;;;;;20785549;28;20041;-45
2022/04/05 22:31:42;;;;;;;9.48;3.00;;;10.00;99.90;;;;;;20781534;28;20045;-45
2022/04/05 22:41:43;;;;;;;9.10;2.38;;;10.10;99.90;;;;;;20780912;28;20053;-45
2022/04/05 22:51:49;;;;;;;8.10;2.13;;;10.10;99.90;;;;;;20779258;28;20409;-45
2022/04/05 23:01:53;;;;;;;8.60;2.33;;;10.10;99.90;;;;;;20782064;28;20041;-45
2022/04/05 23:11:55;;;;;;;5.13;1.67;;;10.10;99.90;;;;;;20782976;28;20048;-45
2022/04/05 23:21:56;;;;;;;7.18;2.20;;;10.10;99.90;;;;;;20782701;28;20052;-45
2022/04/05 23:32:05;;;;;;;8.02;1.80;;;10.20;99.90;;;;;;20784833;28;20029;-45
2022/04/05 23:42:09;;;;;;;9.52;1.42;;;10.20;99.90;;;;;;20791717;28;20060;-45
2022/04/05 23:52:10;;;;;;;13.30;1.70;;;10.30;99.90;;;;;;20798344;28;20037;-45
